Time;durP1;ratioP1;P1;durP2;ratioP2;P2;SDS_P1;SDS_P2;PMS_P1;PMS_P2;Temp;Humidity;BMP_temperature;BMP_pressure;BME280_temperature;BME280_humidity;BME280_pressure;Samples;Min_cycle;Max_cycle;Signal;HPM_P1;HPM_P2
2022/06/02 00:02:27;;;;;;;;;;;21.60;70.40;;;;;;5045615;28;19976;-83
2022/06/02 00:04:58;;;;;;;;;;;21.60;70.60;;;;;;5057855;28;19927;-83
2022/06/02 00:07:28;;;;;;;;;;;21.60;70.70;;;;;;5057802;28;19927;-83
2022/06/02 00:10:02;;;;;;;;;;;21.60;70.90;;;;;;5058566;28;19921;-83
2022/06/02 00:12:32;;;;;;;;;;;21.60;71.10;;;;;;5057703;28;20467;-84
2022/06/02 00:15:03;;;;;;;;;;;21.60;71.30;;;;;;5058352;28;20007;-83
2022/06/02 00:17:39;;;;;;;;;;;21.60;71.50;;;;;;5058462;28;19960;-83
2022/06/02 00:20:08;;;;;;;;;;;21.60;71.70;;;;;;5057815;28;20444;-83
2022/06/02 00:22:38;;;;;;;;;;;21.60;71.80;;;;;;5058381;28;19920;-83
2022/06/02 00:25:08;;;;;;;;;;;21.60;71.90;;;;;;5057662;28;20402;-83
2022/06/02 00:27:40;;;;;;;;;;;21.60;72.10;;;;;;5058686;28;19978;-83
2022/06/02 00:30:14;;;;;;;;;;;21.60;72.30;;;;;;5057420;28;19920;-83
2022/06/02 00:32:47;;;;;;;;;;;21.60;72.40;;;;;;5058467;28;19924;-83
2022/06/02 00:35:18;;;;;;;;;;;21.60;72.60;;;;;;5059230;28;19988;-84
2022/06/02 00:37:48;;;;;;;;;;;21.60;72.70;;;;;;5058647;28;19927;-83
2022/06/02 00:40:16;;;;;;;;;;;21.60;72.90;;;;;;5058688;28;20019;-83
2022/06/02 00:42:50;;;;;;;;;;;21.60;73.00;;;;;;5058414;28;19921;-83
2022/06/02 00:45:17;;;;;;;;;;;21.60;73.20;;;;;;5057430;28;20004;-83
2022/06/02 00:47:54;;;;;;;;;;;21.60;73.40;;;;;;5058364;28;19927;-83
2022/06/02 00:50:33;;;;;;;;;;;21.60;73.60;;;;;;5058413;28;20011;-83
2022/06/02 00:53:03;;;;;;;;;;;21.60;73.70;;;;;;5058705;28;19967;-83
2022/06/02 00:58:25;;;;;;;;;;;21.60;74.00;;;;;;5058184;28;19939;-83
2022/06/02 01:00:54;;;;;;;;;;;21.60;74.30;;;;;;5057946;28;19928;-83
2022/06/02 01:03:23;;;;;;;;;;;21.60;74.50;;;;;;5058346;28;19924;-83
2022/06/02 01:05:58;;;;;;;;;;;21.60;74.70;;;;;;5062172;28;20020;-83
2022/06/02 01:08:32;;;;;;;;;;;21.70;75.00;;;;;;5061922;28;20031;-82
2022/06/02 01:11:04;;;;;;;;;;;21.60;75.10;;;;;;5062147;28;20007;-83
2022/06/02 01:13:52;;;;;;;;;;;21.70;75.50;;;;;;5062103;28;20003;-83
2022/06/02 01:16:20;;;;;;;;;;;21.70;75.50;;;;;;5057188;28;20439;-83
2022/06/02 01:19:01;;;;;;;;;;;21.70;75.50;;;;;;5062361;28;20003;-83
2022/06/02 01:21:43;;;;;;;;;;;21.70;75.70;;;;;;5062274;28;20456;-83
2022/06/02 01:24:25;;;;;;;;;;;21.70;76.00;;;;;;5062145;28;20007;-83
2022/06/02 01:27:06;;;;;;;;;;;21.70;76.30;;;;;;5061708;28;19920;-83
2022/06/02 01:29:48;;;;;;;;;;;21.70;76.40;;;;;;5061970;28;20011;-83
2022/06/02 01:32:17;;;;;;;;;;;21.70;76.70;;;;;;5062033;28;19927;-83
2022/06/02 01:34:53;;;;;;;;;;;21.70;76.90;;;;;;5062160;28;19952;-83
2022/06/02 01:37:25;;;;;;;;;;;21.70;77.10;;;;;;5062098;28;20102;-83
2022/06/02 01:39:58;;;;;;;;;;;21.70;77.20;;;;;;5062956;28;19996;-83
2022/06/02 01:42:30;;;;;;;;;;;21.70;77.40;;;;;;5064174;28;19984;-83
2022/06/02 01:45:03;;;;;;;;;;;21.70;77.60;;;;;;5060830;28;19921;-83
2022/06/02 01:47:33;;;;;;;;;;;21.70;77.70;;;;;;5058063;28;19920;-83
2022/06/02 01:50:06;;;;;;;;;;;21.60;77.80;;;;;;5057660;28;19928;-83
2022/06/02 01:52:44;;;;;;;;;;;21.70;78.00;;;;;;5057883;28;19927;-83
2022/06/02 01:55:28;;;;;;;;;;;21.60;78.10;;;;;;5057569;28;19924;-83
2022/06/02 01:58:00;;;;;;;;;;;21.60;78.40;;;;;;5062922;28;20008;-80
2022/06/02 02:00:28;;;;;;;;;;;21.60;78.60;;;;;;5069131;28;19960;-80
2022/06/02 02:03:01;;;;;;;;;;;21.60;78.70;;;;;;5069805;28;19960;-79
2022/06/02 02:05:30;;;;;;;;;;;21.70;79.00;;;;;;5070132;28;20372;-79
2022/06/02 02:08:04;;;;;;;;;;;21.70;79.20;;;;;;5070058;28;19972;-79
2022/06/02 02:10:36;;;;;;;;;;;21.70;79.30;;;;;;5068184;28;20011;-79
2022/06/02 02:13:09;;;;;;;;;;;21.70;79.50;;;;;;5068306;28;19975;-79
2022/06/02 02:15:43;;;;;;;;;;;21.60;79.50;;;;;;5067945;28;19967;-79
2022/06/02 02:18:26;;;;;;;;;;;21.60;79.60;;;;;;5067546;28;19963;-79
2022/06/02 02:20:59;;;;;;;;;;;21.60;79.70;;;;;;5067958;28;19967;-79
2022/06/02 02:23:30;;;;;;;;;;;21.60;79.90;;;;;;5065597;28;20012;-79
2022/06/02 02:26:00;;;;;;;;;;;21.60;80.00;;;;;;5067993;28;19935;-79
2022/06/02 02:28:31;;;;;;;;;;;21.60;80.10;;;;;;5068601;28;19921;-79
2022/06/02 02:31:03;;;;;;;;;;;21.60;80.20;;;;;;5068446;28;19980;-79
2022/06/02 02:33:37;;;;;;;;;;;21.60;80.30;;;;;;5066901;28;19956;-79
2022/06/02 02:36:10;;;;;;;;;;;21.60;80.40;;;;;;5064442;28;19971;-79
2022/06/02 02:38:41;;;;;;;;;;;21.60;80.50;;;;;;5066334;28;19921;-79
2022/06/02 02:41:15;;;;;;;;;;;21.60;80.60;;;;;;5067841;28;19963;-79
2022/06/02 02:43:44;;;;;;;;;;;21.60;80.70;;;;;;5069028;28;19924;-79
2022/06/02 02:46:13;;;;;;;;;;;21.60;80.90;;;;;;5067894;28;19955;-79
2022/06/02 02:48:46;;;;;;;;;;;21.60;81.10;;;;;;5068083;28;19921;-79
2022/06/02 02:51:16;;;;;;;;;;;21.60;81.20;;;;;;5067930;28;19988;-80
2022/06/02 02:53:45;;;;;;;;;;;21.60;81.20;;;;;;5064377;28;19920;-79
2022/06/02 02:56:15;;;;;;;;;;;21.60;81.20;;;;;;5058820;28;19924;-79
2022/06/02 02:58:44;;;;;;;;;;;21.60;81.20;;;;;;5058426;28;20359;-79
2022/06/02 03:01:14;;;;;;;;;;;21.60;81.20;;;;;;5057254;28;19921;-79
2022/06/02 03:03:46;;;;;;;;;;;21.60;81.30;;;;;;5057585;28;19931;-79
2022/06/02 03:06:23;;;;;;;;;;;21.60;81.20;;;;;;5057289;28;20370;-79
2022/06/02 03:08:54;;;;;;;;;;;21.60;81.20;;;;;;5057943;28;20345;-79
2022/06/02 03:11:33;;;;;;;;;;;21.60;81.40;;;;;;5058589;28;20419;-79
2022/06/02 03:14:04;;;;;;;;;;;21.60;81.60;;;;;;5058982;28;19921;-79
2022/06/02 03:16:33;;;;;;;;;;;21.60;81.70;;;;;;5059548;28;19924;-80
2022/06/02 03:19:04;;;;;;;;;;;21.60;81.90;;;;;;5059050;28;20002;-79
2022/06/02 03:21:33;;;;;;;;;;;21.60;82.00;;;;;;5058323;28;19959;-79
2022/06/02 03:24:30;;;;;;;;;;;21.60;82.10;;;;;;5058237;28;19927;-79
2022/06/02 03:27:07;;;;;;;;;;;21.60;82.20;;;;;;5057197;28;20363;-79
2022/06/02 03:29:40;;;;;;;;;;;21.60;82.20;;;;;;5058182;28;19921;-79
2022/06/02 03:32:11;;;;;;;;;;;21.60;82.40;;;;;;5057729;28;20026;-79
2022/06/02 03:34:43;;;;;;;;;;;21.60;82.50;;;;;;5058116;28;19928;-79
2022/06/02 03:37:18;;;;;;;;;;;21.60;82.60;;;;;;5057524;28;19924;-79
2022/06/02 03:39:51;;;;;;;;;;;21.60;82.70;;;;;;5057648;28;19921;-79
2022/06/02 03:42:22;;;;;;;;;;;21.60;82.80;;;;;;5057878;28;19927;-79
2022/06/02 03:44:55;;;;;;;;;;;21.60;82.80;;;;;;5057871;28;19927;-79
2022/06/02 03:47:35;;;;;;;;;;;21.60;82.90;;;;;;5057976;28;20383;-79
2022/06/02 03:50:09;;;;;;;;;;;21.60;83.00;;;;;;5058428;28;20335;-79
2022/06/02 03:52:43;;;;;;;;;;;21.50;82.90;;;;;;5057972;28;20007;-79
2022/06/02 03:55:17;;;;;;;;;;;21.60;83.00;;;;;;5057736;28;19927;-79
2022/06/02 03:57:51;;;;;;;;;;;21.60;83.10;;;;;;5056728;28;20424;-79
2022/06/02 04:00:19;;;;;;;;;;;21.50;83.10;;;;;;5057435;28;19927;-79
2022/06/02 04:02:49;;;;;;;;;;;21.50;83.10;;;;;;5057414;28;19921;-79
2022/06/02 04:05:36;;;;;;;;;;;21.50;83.20;;;;;;5057873;28;19927;-79
2022/06/02 04:08:09;;;;;;;;;;;21.50;83.30;;;;;;5057580;28;20394;-79
2022/06/02 04:10:38;;;;;;;;;;;21.60;83.50;;;;;;5057435;28;19952;-79
2022/06/02 04:16:17;;;;;;;;;;;21.50;83.50;;;;;;5057649;28;19924;-79
2022/06/02 04:18:53;;;;;;;;;;;21.50;83.60;;;;;;5055070;28;19920;-79
2022/06/02 04:21:25;;;;;;;;;;;21.50;83.60;;;;;;5055602;28;19921;-79
2022/06/02 04:24:16;;;;;;;;;;;21.50;83.60;;;;;;5056550;28;19978;-79
2022/06/02 04:26:52;;;;;;;;;;;21.50;83.40;;;;;;5038676;28;19924;-76
2022/06/02 04:29:24;;;;;;;;;;;21.50;83.20;;;;;;5054470;28;19921;-78
2022/06/02 04:31:55;;;;;;;;;;;21.50;83.00;;;;;;5054927;28;19921;-82
2022/06/02 04:34:27;;;;;;;;;;;21.50;82.90;;;;;;5055115;28;20007;-81
2022/06/02 04:37:01;;;;;;;;;;;21.40;82.60;;;;;;5054945;28;19920;-80
2022/06/02 04:39:30;;;;;;;;;;;21.40;82.50;;;;;;5054377;28;19927;-83
2022/06/02 04:42:01;;;;;;;;;;;21.40;82.30;;;;;;5054477;28;19920;-86
2022/06/02 04:44:34;;;;;;;;;;;21.40;82.20;;;;;;5055637;28;19920;-81
2022/06/02 04:47:05;;;;;;;;;;;21.40;82.20;;;;;;5054989;28;20011;-84
2022/06/02 04:49:38;;;;;;;;;;;21.40;82.10;;;;;;5054165;28;20035;-87
2022/06/02 04:52:12;;;;;;;;;;;21.40;82.20;;;;;;5056243;28;20471;-83
2022/06/02 04:54:42;;;;;;;;;;;21.40;82.20;;;;;;5057491;28;20376;-83
2022/06/02 04:57:12;;;;;;;;;;;21.50;82.30;;;;;;5057076;28;20316;-81
2022/06/02 04:59:41;;;;;;;;;;;21.50;82.40;;;;;;5059566;28;19999;-82
2022/06/02 05:02:12;;;;;;;;;;;21.50;82.70;;;;;;5058051;28;19974;-82
2022/06/02 05:04:42;;;;;;;;;;;21.60;82.90;;;;;;5057834;28;20394;-80
2022/06/02 05:07:17;;;;;;;;;;;21.60;83.00;;;;;;5057395;28;20015;-80
2022/06/02 05:09:47;;;;;;;;;;;21.60;83.10;;;;;;5057232;28;19928;-81
2022/06/02 05:12:20;;;;;;;;;;;21.60;83.20;;;;;;5054820;28;20011;-85
2022/06/02 05:14:50;;;;;;;;;;;21.60;83.30;;;;;;5054067;28;19928;-84
2022/06/02 05:17:36;;;;;;;;;;;21.60;83.20;;;;;;5053622;28;19999;-84
2022/06/02 05:20:09;;;;;;;;;;;21.60;83.20;;;;;;5044238;28;20334;-84
2022/06/02 05:22:51;;;;;;;;;;;21.60;83.10;;;;;;5053666;28;19921;-84
2022/06/02 05:25:30;;;;;;;;;;;21.60;83.00;;;;;;5053905;28;19921;-84
2022/06/02 05:28:15;;;;;;;;;;;21.60;83.00;;;;;;5054102;28;19927;-84
2022/06/02 05:30:59;;;;;;;;;;;21.60;83.00;;;;;;5053884;28;19939;-85
2022/06/02 05:33:46;;;;;;;;;;;21.60;82.90;;;;;;5054332;28;19980;-84
2022/06/02 05:36:19;;;;;;;;;;;21.60;82.90;;;;;;5054263;28;19924;-85
2022/06/02 05:38:55;;;;;;;;;;;21.60;82.80;;;;;;5053885;28;19927;-84
2022/06/02 05:41:27;;;;;;;;;;;21.60;82.80;;;;;;5054685;28;19925;-84
2022/06/02 05:43:58;;;;;;;;;;;21.60;82.70;;;;;;5054054;28;19921;-84
2022/06/02 05:46:33;;;;;;;;;;;21.60;82.70;;;;;;5054419;28;20019;-84
2022/06/02 05:49:07;;;;;;;;;;;21.60;82.60;;;;;;5059235;28;20463;-85
2022/06/02 05:51:35;;;;;;;;;;;21.60;82.60;;;;;;5057890;28;20376;-84
2022/06/02 05:54:14;;;;;;;;;;;21.60;82.50;;;;;;5057179;28;19931;-84
2022/06/02 05:56:45;;;;;;;;;;;21.60;82.50;;;;;;5057092;28;20015;-85
2022/06/02 05:59:19;;;;;;;;;;;21.60;82.30;;;;;;5057275;28;19925;-85
2022/06/02 06:01:55;;;;;;;;;;;21.50;82.20;;;;;;5057779;28;20352;-84
2022/06/02 06:04:42;;;;;;;;;;;21.50;82.00;;;;;;5057342;28;19921;-84
2022/06/02 06:07:12;;;;;;;;;;;21.60;82.10;;;;;;5056824;28;20387;-85
2022/06/02 06:09:44;;;;;;;;;;;21.50;81.90;;;;;;5057563;28;19921;-85
2022/06/02 06:12:22;;;;;;;;;;;21.50;81.90;;;;;;5056731;28;19920;-84
2022/06/02 06:14:54;;;;;;;;;;;21.60;82.00;;;;;;5057056;28;20364;-84
2022/06/02 06:17:26;;;;;;;;;;;21.60;81.90;;;;;;5057254;28;19943;-84
2022/06/02 06:20:00;;;;;;;;;;;21.60;81.90;;;;;;5057383;28;19931;-84
2022/06/02 06:22:44;;;;;;;;;;;21.60;81.80;;;;;;5057402;28;19921;-85
2022/06/02 06:25:20;;;;;;;;;;;21.60;81.70;;;;;;5047470;28;20265;-85
2022/06/02 06:27:51;;;;;;;;;;;21.60;81.70;;;;;;5058334;28;19920;-85
2022/06/02 06:30:23;;;;;;;;;;;21.60;81.60;;;;;;5057374;28;19967;-84
2022/06/02 06:32:55;;;;;;;;;;;21.60;81.50;;;;;;5057981;28;19924;-84
2022/06/02 06:35:28;;;;;;;;;;;21.60;81.30;;;;;;5057801;28;19920;-84
2022/06/02 06:38:06;;;;;;;;;;;21.60;81.20;;;;;;5057720;28;19920;-85
2022/06/02 06:40:48;;;;;;;;;;;21.60;81.20;;;;;;5057389;28;20399;-84
2022/06/02 06:43:22;;;;;;;;;;;21.60;81.20;;;;;;5057411;28;20019;-84
2022/06/02 06:45:51;;;;;;;;;;;21.60;81.20;;;;;;5057024;28;19983;-84
2022/06/02 06:48:21;;;;;;;;;;;21.60;81.20;;;;;;5057303;28;20019;-84
2022/06/02 06:50:51;;;;;;;;;;;21.60;81.30;;;;;;5057953;28;19920;-84
2022/06/02 06:53:24;;;;;;;;;;;21.60;81.30;;;;;;5057647;28;19921;-84
2022/06/02 06:55:57;;;;;;;;;;;21.60;81.30;;;;;;5057155;28;20011;-84
2022/06/02 06:58:32;;;;;;;;;;;21.60;81.20;;;;;;5056839;28;20030;-83
2022/06/02 07:01:04;;;;;;;;;;;21.60;81.20;;;;;;5056938;28;19967;-82
2022/06/02 07:03:36;;;;;;;;;;;21.60;81.20;;;;;;5057260;28;20015;-82
2022/06/02 07:06:09;;;;;;;;;;;21.60;81.10;;;;;;5057812;28;19920;-82
2022/06/02 07:08:37;;;;;;;;;;;21.60;80.90;;;;;;5057281;28;20011;-82
2022/06/02 07:12:50;;;;;;;;;;;21.60;80.80;;;;;;5057083;28;20431;-82
2022/06/02 07:13:58;;;;;;;;;;;21.60;80.60;;;;;;5056661;28;19920;-83
2022/06/02 07:16:28;;;;;;;;;;;21.60;80.50;;;;;;5057058;28;20376;-82
2022/06/02 07:18:58;;;;;;;;;;;21.60;80.50;;;;;;5057114;28;19920;-82
2022/06/02 07:21:29;;;;;;;;;;;21.60;80.40;;;;;;5056933;28;20338;-82
2022/06/02 07:24:04;;;;;;;;;;;21.60;80.30;;;;;;5057159;28;20004;-82
2022/06/02 07:26:48;;;;;;;;;;;21.60;80.30;;;;;;5057060;28;19921;-82
2022/06/02 07:29:29;;;;;;;;;;;21.60;80.10;;;;;;5056876;28;19956;-82
2022/06/02 07:32:07;;;;;;;;;;;21.60;80.10;;;;;;5057207;28;20007;-82
2022/06/02 07:34:41;;;;;;;;;;;21.60;80.00;;;;;;5056916;28;19925;-82
2022/06/02 07:37:20;;;;;;;;;;;21.60;79.90;;;;;;5056965;28;19921;-82
2022/06/02 07:40:05;;;;;;;;;;;21.60;79.70;;;;;;5056757;28;19927;-82
2022/06/02 07:42:47;;;;;;;;;;;21.60;79.60;;;;;;5046237;28;20403;-81
2022/06/02 07:45:20;;;;;;;;;;;21.60;79.50;;;;;;5056837;28;19925;-82
2022/06/02 07:48:04;;;;;;;;;;;21.60;79.50;;;;;;5056310;28;19986;-82
2022/06/02 07:50:32;;;;;;;;;;;21.60;79.40;;;;;;5056102;28;19920;-82
2022/06/02 07:53:08;;;;;;;;;;;21.60;79.30;;;;;;5056256;28;19983;-82
2022/06/02 07:55:38;;;;;;;;;;;21.60;79.10;;;;;;5056773;28;19924;-82
2022/06/02 07:58:15;;;;;;;;;;;21.60;79.10;;;;;;5056619;28;20346;-82
2022/06/02 08:00:44;;;;;;;;;;;21.60;78.90;;;;;;5056259;28;19920;-82
2022/06/02 08:03:35;;;;;;;;;;;21.60;78.90;;;;;;5056176;28;19921;-82
2022/06/02 08:06:03;;;;;;;;;;;21.60;78.80;;;;;;5055765;28;20394;-82
2022/06/02 08:08:35;;;;;;;;;;;21.70;78.80;;;;;;5056076;28;19928;-82
2022/06/02 08:11:16;;;;;;;;;;;21.60;78.60;;;;;;5056276;28;19921;-82
2022/06/02 08:13:49;;;;;;;;;;;21.60;78.50;;;;;;5055827;28;20023;-82
2022/06/02 08:16:17;;;;;;;;;;;21.70;78.50;;;;;;5055972;28;19927;-82
2022/06/02 08:18:49;;;;;;;;;;;21.60;78.30;;;;;;5056115;28;20386;-82
2022/06/02 08:21:21;;;;;;;;;;;21.70;78.30;;;;;;5056049;28;20296;-82
2022/06/02 08:24:21;;;;;;;;;;;21.60;78.20;;;;;;5056046;28;19927;-81
2022/06/02 08:26:53;;;;;;;;;;;21.70;78.20;;;;;;5055717;28;20011;-82
2022/06/02 08:29:28;;;;;;;;;;;21.70;78.10;;;;;;5055844;28;19921;-82
2022/06/02 08:32:00;;;;;;;;;;;21.60;77.80;;;;;;5056042;28;19939;-82
2022/06/02 08:34:35;;;;;;;;;;;21.70;77.90;;;;;;5055555;28;20380;-83
2022/06/02 08:37:04;;;;;;;;;;;21.70;77.80;;;;;;5054514;28;20426;-84
2022/06/02 08:39:49;;;;;;;;;;;21.70;77.70;;;;;;5054815;28;20007;-84
2022/06/02 08:42:21;;;;;;;;;;;21.70;77.60;;;;;;5054792;28;20007;-84
2022/06/02 08:45:06;;;;;;;;;;;21.70;77.60;;;;;;5055133;28;20288;-84
2022/06/02 08:47:47;;;;;;;;;;;21.70;77.50;;;;;;5054545;28;20290;-84
2022/06/02 08:50:35;;;;;;;;;;;21.70;77.30;;;;;;5054693;28;20015;-84
2022/06/02 08:53:32;;;;;;;;;;;21.70;77.20;;;;;;5049486;28;19963;-84
2022/06/02 08:56:07;;;;;;;;;;;21.70;77.10;;;;;;5054667;28;20027;-84
2022/06/02 08:58:54;;;;;;;;;;;21.70;77.10;;;;;;5055626;28;19927;-82
2022/06/02 09:01:28;;;;;;;;;;;21.70;77.00;;;;;;5055949;28;20415;-82
2022/06/02 09:04:16;;;;;;;;;;;21.70;76.90;;;;;;5055604;28;20016;-82
2022/06/02 09:06:57;;;;;;;;;;;21.70;76.80;;;;;;5029844;28;19920;-82
2022/06/02 09:09:54;;;;;;;;;;;21.70;76.70;;;;;;5055852;28;20011;-81
2022/06/02 09:12:33;;;;;;;;;;;21.70;76.60;;;;;;4994176;28;20024;-83
2022/06/02 09:15:12;;;;;;;;;;;21.70;76.50;;;;;;5045957;28;19920;-84
2022/06/02 09:17:45;;;;;;;;;;;21.70;76.40;;;;;;5055580;28;20303;-84
2022/06/02 09:20:14;;;;;;;;;;;21.70;76.30;;;;;;5055741;28;20364;-84
2022/06/02 09:22:52;;;;;;;;;;;21.70;76.20;;;;;;5054940;28;20372;-84
2022/06/02 09:25:28;;;;;;;;;;;21.70;76.10;;;;;;5057101;28;19921;-84
2022/06/02 09:28:12;;;;;;;;;;;21.70;76.00;;;;;;5058304;28;19979;-84
2022/06/02 09:30:51;;;;;;;;;;;21.70;75.90;;;;;;5058490;28;20283;-84
2022/06/02 09:33:46;;;;;;;;;;;21.70;75.80;;;;;;5058129;28;20010;-84
2022/06/02 09:36:32;;;;;;;;;;;21.70;75.70;;;;;;5058277;28;19999;-84
2022/06/02 09:39:06;;;;;;;;;;;21.70;75.60;;;;;;5058717;28;19933;-84
2022/06/02 09:41:45;;;;;;;;;;;21.70;75.50;;;;;;5058170;28;20012;-84
2022/06/02 09:44:21;;;;;;;;;;;21.70;75.50;;;;;;5059051;28;19927;-84
2022/06/02 09:46:55;;;;;;;;;;;21.70;75.50;;;;;;5059207;28;20035;-85
2022/06/02 09:49:32;;;;;;;;;;;21.70;75.50;;;;;;5060120;28;19921;-84
2022/06/02 09:52:03;;;;;;;;;;;21.70;75.50;;;;;;5058506;28;19927;-85
2022/06/02 09:54:35;;;;;;;;;;;21.70;75.50;;;;;;5058835;28;19928;-84
2022/06/02 10:00:11;;;;;;;;;;;21.70;75.50;;;;;;5058796;28;20482;-85
2022/06/02 10:02:44;;;;;;;;;;;21.70;75.50;;;;;;5059338;28;19920;-85
2022/06/02 10:05:20;;;;;;;;;;;21.70;75.40;;;;;;5058538;28;19988;-85
2022/06/02 10:08:02;;;;;;;;;;;21.70;75.30;;;;;;5058535;28;19955;-85
2022/06/02 10:10:39;;;;;;;;;;;21.70;75.20;;;;;;5058336;28;20364;-84
2022/06/02 10:13:24;;;;;;;;;;;21.80;75.20;;;;;;5058470;28;20407;-84
2022/06/02 10:16:03;;;;;;;;;;;21.80;75.20;;;;;;5059044;28;19921;-85
2022/06/02 10:18:48;;;;;;;;;;;21.80;75.10;;;;;;5058504;28;19920;-85
2022/06/02 10:21:22;;;;;;;;;;;21.70;74.90;;;;;;5058637;28;20007;-85
2022/06/02 10:24:04;;;;;;;;;;;21.80;75.00;;;;;;5059045;28;20332;-85
2022/06/02 10:26:37;;;;;;;;;;;21.80;74.90;;;;;;5059077;28;19968;-85
2022/06/02 10:29:22;;;;;;;;;;;21.80;74.80;;;;;;5057695;28;19971;-84
2022/06/02 10:32:15;;;;;;;;;;;21.80;74.70;;;;;;5057514;28;19920;-84
2022/06/02 10:35:01;;;;;;;;;;;21.80;74.60;;;;;;5057273;28;19971;-84
2022/06/02 10:37:52;;;;;;;;;;;21.80;74.60;;;;;;5057214;28;19927;-85
2022/06/02 10:40:39;;;;;;;;;;;21.80;74.50;;;;;;5042022;28;19920;-84
2022/06/02 10:43:23;;;;;;;;;;;21.80;74.50;;;;;;5057529;28;20291;-84
2022/06/02 10:46:03;;;;;;;;;;;21.80;74.40;;;;;;5026482;28;20364;-84
2022/06/02 10:48:48;;;;;;;;;;;21.80;74.30;;;;;;5057017;28;20016;-84
2022/06/02 10:51:23;;;;;;;;;;;21.80;75.10;;;;;;5057215;28;20015;-85
2022/06/02 10:54:22;;;;;;;;;;;21.80;74.30;;;;;;5057522;28;19921;-84
2022/06/02 10:56:59;;;;;;;;;;;21.80;74.20;;;;;;5056948;28;19927;-84
2022/06/02 10:59:44;;;;;;;;;;;21.80;74.10;;;;;;5056998;28;19924;-84
2022/06/02 11:02:28;;;;;;;;;;;21.80;74.00;;;;;;5057106;28;20020;-84
2022/06/02 11:05:11;;;;;;;;;;;21.80;73.90;;;;;;5056986;28;19921;-84
2022/06/02 11:08:08;;;;;;;;;;;21.80;73.90;;;;;;5056707;28;20368;-85
2022/06/02 11:10:42;;;;;;;;;;;21.80;73.90;;;;;;4994927;28;20425;-84
2022/06/02 11:13:21;;;;;;;;;;;21.80;73.90;;;;;;5045835;28;20015;-84
2022/06/02 11:16:14;;;;;;;;;;;21.80;73.80;;;;;;5056698;28;20004;-85
2022/06/02 11:18:55;;;;;;;;;;;21.80;73.70;;;;;;5057313;28;19921;-86
2022/06/02 11:21:40;;;;;;;;;;;21.80;73.60;;;;;;5058625;28;19967;-85
2022/06/02 11:24:24;;;;;;;;;;;21.80;73.50;;;;;;5058889;28;20019;-86
2022/06/02 11:27:10;;;;;;;;;;;21.80;73.80;;;;;;5058410;28;19970;-86
2022/06/02 11:29:58;;;;;;;;;;;21.80;73.40;;;;;;5058555;28;19920;-85
2022/06/02 11:32:44;;;;;;;;;;;21.80;73.30;;;;;;5064290;28;19980;-85
2022/06/02 11:35:27;;;;;;;;;;;21.80;73.20;;;;;;5060514;28;20011;-85
2022/06/02 11:38:03;;;;;;;;;;;21.80;73.10;;;;;;5062830;28;20019;-83
2022/06/02 11:40:51;;;;;;;;;;;21.80;73.10;;;;;;5063770;28;19921;-80
2022/06/02 11:43:24;;;;;;;;;;;21.80;73.10;;;;;;5062597;28;20358;-80
2022/06/02 11:46:18;;;;;;;;;;;21.80;73.00;;;;;;5062049;28;19980;-81
2022/06/02 11:48:59;;;;;;;;;;;21.80;73.00;;;;;;5026199;28;19921;-81
2022/06/02 11:51:37;;;;;;;;;;;21.80;72.90;;;;;;5062631;28;19992;-81
2022/06/02 11:54:31;;;;;;;;;;;21.90;73.00;;;;;;5062276;28;19927;-81
2022/06/02 11:57:08;;;;;;;;;;;21.80;72.80;;;;;;5026907;28;20387;-81
2022/06/02 11:59:50;;;;;;;;;;;21.80;72.80;;;;;;5062523;28;19924;-81
2022/06/02 12:02:41;;;;;;;;;;;21.90;72.90;;;;;;5059141;28;19924;-81
2022/06/02 12:05:26;;;;;;;;;;;21.90;72.90;;;;;;5046624;28;19921;-81
2022/06/02 12:08:06;;;;;;;;;;;21.90;72.90;;;;;;5052486;28;19928;-81
2022/06/02 12:10:51;;;;;;;;;;;21.90;72.80;;;;;;5062015;28;19921;-81
2022/06/02 12:13:33;;;;;;;;;;;21.90;72.80;;;;;;5062255;28;19920;-81
2022/06/02 12:16:10;;;;;;;;;;;21.90;72.80;;;;;;5062548;28;19973;-81
2022/06/02 12:18:43;;;;;;;;;;;21.90;72.80;;;;;;5063042;28;19928;-80
2022/06/02 12:21:28;;;;;;;;;;;21.90;72.80;;;;;;5063118;28;19970;-82
2022/06/02 12:24:15;;;;;;;;;;;21.90;72.80;;;;;;5062272;28;19921;-81
2022/06/02 12:26:54;;;;;;;;;;;21.90;72.60;;;;;;5057329;28;19943;-81
2022/06/02 12:29:28;;;;;;;;;;;21.90;72.60;;;;;;5062067;28;20257;-81
2022/06/02 12:32:05;;;;;;;;;;;21.90;72.50;;;;;;5062879;28;19925;-81
2022/06/02 12:34:44;;;;;;;;;;;21.90;72.40;;;;;;5062359;28;19921;-81
2022/06/02 12:37:26;;;;;;;;;;;21.90;72.30;;;;;;5062111;28;19943;-81
2022/06/02 12:40:04;;;;;;;;;;;21.90;73.00;;;;;;5048999;28;19921;-81
2022/06/02 12:42:50;;;;;;;;;;;21.90;72.20;;;;;;5061121;28;19943;-80
2022/06/02 12:45:39;;;;;;;;;;;21.90;72.20;;;;;;5062347;28;20035;-81
2022/06/02 12:48:21;;;;;;;;;;;21.90;72.10;;;;;;5059570;28;20295;-81
2022/06/02 12:50:52;;;;;;;;;;;21.90;72.00;;;;;;5055905;28;20336;-81
2022/06/02 12:53:39;;;;;;;;;;;21.90;71.90;;;;;;5056149;28;19924;-81
2022/06/02 12:56:25;;;;;;;;;;;21.90;71.80;;;;;;5057111;28;20003;-81
2022/06/02 12:59:25;;;;;;;;;;;21.90;71.80;;;;;;5058455;28;19921;-84
2022/06/02 13:02:00;;;;;;;;;;;21.90;71.80;;;;;;5063753;28;19943;-84
2022/06/02 13:05:00;;;;;;;;;;;21.90;71.70;;;;;;5062101;28;19991;-84
2022/06/02 13:07:45;;;;;;;;;;;21.90;71.70;;;;;;5061055;28;20036;-85
2022/06/02 13:10:30;;;;;;;;;;;21.90;71.60;;;;;;5062363;28;20011;-84
2022/06/02 13:13:28;;;;;;;;;;;21.90;71.60;;;;;;5062477;28;19921;-84
2022/06/02 13:16:06;;;;;;;;;;;21.90;71.50;;;;;;5063300;28;19983;-84
2022/06/02 13:18:51;;;;;;;;;;;21.90;71.50;;;;;;5061436;28;19974;-86
2022/06/02 13:21:42;;;;;;;;;;;21.90;71.40;;;;;;5061863;28;19924;-86
2022/06/02 13:24:29;;;;;;;;;;;21.90;71.30;;;;;;5061843;28;19959;-86
2022/06/02 13:27:03;;;;;;;;;;;21.80;71.10;;;;;;5056096;28;19921;-86
2022/06/02 13:29:45;;;;;;;;;;;21.90;71.10;;;;;;5060119;28;19920;-87
2022/06/02 13:32:24;;;;;;;;;;;21.90;71.00;;;;;;5061760;28;20391;-86
2022/06/02 13:35:17;;;;;;;;;;;21.90;71.00;;;;;;5061358;28;19952;-86
2022/06/02 13:37:55;;;;;;;;;;;21.90;71.00;;;;;;5060993;28;19921;-86
2022/06/02 13:40:25;;;;;;;;;;;21.80;70.80;;;;;;5063600;28;20023;-86
2022/06/02 13:43:13;;;;;;;;;;;21.80;70.70;;;;;;5062173;28;19921;-84
2022/06/02 13:46:01;;;;;;;;;;;21.80;70.60;;;;;;5036705;28;20402;-86
2022/06/02 13:48:46;;;;;;;;;;;21.80;70.60;;;;;;5056886;28;19988;-86
2022/06/02 13:51:31;;;;;;;;;;;21.80;70.50;;;;;;5057310;28;20015;-87
2022/06/02 13:57:38;;;;;;;;;;;21.80;70.70;;;;;;5051010;28;19923;-88
2022/06/02 14:00:13;;;;;;;;;;;21.90;71.00;;;;;;5058608;28;20360;-88
2022/06/02 14:02:51;;;;;;;;;;;21.90;71.10;;;;;;5056849;28;20011;-88
2022/06/02 14:05:26;;;;;;;;;;;21.90;71.20;;;;;;5057822;28;20023;-88
2022/06/02 14:08:07;;;;;;;;;;;21.80;71.20;;;;;;5056867;28;20479;-86
2022/06/02 14:10:50;;;;;;;;;;;21.90;71.50;;;;;;5057395;28;19930;-86
2022/06/02 14:13:26;;;;;;;;;;;21.90;71.50;;;;;;5056885;28;19964;-87
2022/06/02 14:16:00;;;;;;;;;;;21.90;71.70;;;;;;5057351;28;19983;-92
2022/06/02 14:18:44;;;;;;;;;;;21.90;71.80;;;;;;5058689;28;19947;-85
2022/06/02 14:21:17;;;;;;;;;;;21.90;72.00;;;;;;5066283;28;20303;-84
2022/06/02 14:23:57;;;;;;;;;;;22.00;72.30;;;;;;5064569;28;19921;-85
2022/06/02 14:26:27;;;;;;;;;;;22.00;72.40;;;;;;5067933;28;19928;-85
2022/06/02 14:28:59;;;;;;;;;;;22.00;72.60;;;;;;5066446;28;19920;-85
2022/06/02 14:31:31;;;;;;;;;;;22.00;72.80;;;;;;5063458;28;19963;-85
2022/06/02 14:34:03;;;;;;;;;;;22.00;72.90;;;;;;5061013;28;20307;-84
2022/06/02 14:36:35;;;;;;;;;;;22.00;73.10;;;;;;5064620;28;20322;-85
2022/06/02 14:39:10;;;;;;;;;;;22.00;73.20;;;;;;5066351;28;19929;-84
2022/06/02 14:41:42;;;;;;;;;;;22.00;73.50;;;;;;5066484;28;19967;-84
2022/06/02 14:44:15;;;;;;;;;;;22.00;73.60;;;;;;5066849;28;19920;-85
2022/06/02 14:46:56;;;;;;;;;;;21.90;73.70;;;;;;5065220;28;20388;-84
2022/06/02 14:49:41;;;;;;;;;;;22.00;73.90;;;;;;5067296;28;19988;-84
2022/06/02 14:52:18;;;;;;;;;;;22.00;74.10;;;;;;5066103;28;19922;-85
2022/06/02 14:54:55;;;;;;;;;;;22.00;74.40;;;;;;5066705;28;19950;-84
2022/06/02 14:57:32;;;;;;;;;;;22.00;74.50;;;;;;5060467;28;19921;-85
2022/06/02 15:00:07;;;;;;;;;;;22.00;74.80;;;;;;5059493;28;19932;-84
2022/06/02 15:02:49;;;;;;;;;;;22.10;75.10;;;;;;5061316;28;20447;-84
2022/06/02 15:05:24;;;;;;;;;;;22.10;75.50;;;;;;5064926;28;20023;-84
2022/06/02 15:08:12;;;;;;;;;;;22.10;75.80;;;;;;5061252;28;20020;-85
2022/06/02 15:10:45;;;;;;;;;;;22.10;76.00;;;;;;5063950;28;19989;-84
2022/06/02 15:13:33;;;;;;;;;;;22.10;76.00;;;;;;5061451;28;20452;-84
2022/06/02 15:16:17;;;;;;;;;;;22.10;76.00;;;;;;5055046;28;20015;-86
2022/06/02 15:19:08;;;;;;;;;;;22.10;76.00;;;;;;5060759;28;20456;-85
2022/06/02 15:21:39;;;;;;;;;;;22.10;76.00;;;;;;5055868;28;19968;-87
2022/06/02 15:24:23;;;;;;;;;;;22.10;76.10;;;;;;5055458;28;19970;-87
2022/06/02 15:26:58;;;;;;;;;;;22.10;76.40;;;;;;5047273;28;19920;-87